Terminal Aerodrome Forecast
Issued by NWS

Home | Current Version | Previous Version | Text Only | Print | Product List | Glossary On
Versions: 1 2 3 4 5 6 7 8 9 10 11 12 13 14 15 16 17 18 19 20 21 22 23 24 25
000
FTUS43 KDMX 281140
TAFMCW
TAF
KMCW 281140Z 2812/2912 VRB03KT 5SM BR SCT110
     FM281400 17005KT P6SM SCT020 OVC035
     FM281800 18010KT P6SM VCSH SCT035 BKN080
     FM282100 20011KT 4SM -TSRA BR SCT007CB OVC025
     FM290400 26009KT P6SM OVC015=

USA.gov is the U.S. government's official web portal to all federal, state and local government web resources and services.